LHA1632 LSZR-EDDN
Flight info
| Callsign | LHA1632 |
|---|---|
| Flight time | 0h 46m |
| Altitude | 23000 |
| Route | ALAGO Z1 SUDEN Z79 GUPIN N869 LETKU LETK1V |
| Aircraft | DH8D/M-SDE1E2FGIJ1RWYZ/S |
Departure
| Time | 2026-05-07 12:55 |
|---|---|
| Airport | Sankt Gallen Altenrhein Airport (LSZR) |
Arrival
| Time | 2026-05-07 13:41 |
|---|---|
| Airport | Nuremberg Airport (EDDN) |
| Time | Latitude | Longitude | Altitude | Speed | Heading |
|---|---|---|---|---|---|
| 2026-05-07 12:40 | 47.48714 | 9.55253 | 1315 ft | 0 kts | 7° |
| 2026-05-07 12:51 | 47.48721 | 9.55254 | 1315 ft | 3 kts | 9° |
| 2026-05-07 12:52 | 47.48736 | 9.55297 | 1315 ft | 7 kts | 98° |
| 2026-05-07 12:52 | 47.48701 | 9.55344 | 1315 ft | 9 kts | 188° |
| 2026-05-07 12:52 | 47.48682 | 9.55340 | 1316 ft | 0 kts | 189° |
| 2026-05-07 12:52 | 47.48678 | 9.55339 | 1316 ft | 2 kts | 189° |
| 2026-05-07 12:53 | 47.48638 | 9.55333 | 1316 ft | 9 kts | 186° |
| 2026-05-07 12:53 | 47.48589 | 9.55265 | 1315 ft | 14 kts | 276° |
| 2026-05-07 12:53 | 47.48605 | 9.55102 | 1313 ft | 16 kts | 279° |
| 2026-05-07 12:53 | 47.48605 | 9.54988 | 1312 ft | 10 kts | 262° |
| 2026-05-07 12:54 | 47.48616 | 9.54975 | 1312 ft | 0 kts | 91° |
| 2026-05-07 12:54 | 47.48616 | 9.54976 | 1312 ft | 3 kts | 91° |
| 2026-05-07 12:54 | 47.48558 | 9.55566 | 1318 ft | 107 kts | 99° |
| 2026-05-07 12:55 | 47.48386 | 9.56938 | 1431 ft | 154 kts | 101° |
| 2026-05-07 12:55 | 47.48139 | 9.58500 | 2011 ft | 163 kts | 105° |
| 2026-05-07 12:55 | 47.48088 | 9.60115 | 2744 ft | 161 kts | 67° |
| 2026-05-07 12:55 | 47.48895 | 9.61120 | 3311 ft | 160 kts | 7° |
| 2026-05-07 12:56 | 47.49957 | 9.60772 | 3929 ft | 162 kts | 336° |
| 2026-05-07 12:56 | 47.50964 | 9.60085 | 4631 ft | 162 kts | 336° |
| 2026-05-07 12:56 | 47.51979 | 9.59396 | 5294 ft | 166 kts | 336° |
| 2026-05-07 12:56 | 47.53087 | 9.58635 | 5784 ft | 181 kts | 335° |
| 2026-05-07 12:57 | 47.54230 | 9.57846 | 6458 ft | 185 kts | 335° |
| 2026-05-07 12:57 | 47.55404 | 9.57030 | 7136 ft | 189 kts | 334° |
| 2026-05-07 12:57 | 47.56581 | 9.56210 | 7829 ft | 190 kts | 334° |
| 2026-05-07 12:57 | 47.57772 | 9.55378 | 8500 ft | 193 kts | 333° |
| 2026-05-07 12:58 | 47.58990 | 9.54529 | 9184 ft | 195 kts | 333° |
| 2026-05-07 12:58 | 47.60211 | 9.53715 | 9859 ft | 197 kts | 340° |
| 2026-05-07 12:58 | 47.61566 | 9.53480 | 10486 ft | 201 kts | 359° |
| 2026-05-07 12:58 | 47.62964 | 9.53557 | 11129 ft | 203 kts | 360° |
| 2026-05-07 12:59 | 47.64381 | 9.53638 | 11722 ft | 206 kts | 359° |
| 2026-05-07 12:59 | 47.65830 | 9.53716 | 12215 ft | 216 kts | 359° |
| 2026-05-07 12:59 | 47.67430 | 9.53782 | 12323 ft | 241 kts | 357° |
| 2026-05-07 12:59 | 47.69082 | 9.53318 | 12721 ft | 246 kts | 337° |
| 2026-05-07 13:00 | 47.70664 | 9.52320 | 13294 ft | 249 kts | 334° |
| 2026-05-07 13:00 | 47.72257 | 9.51295 | 13878 ft | 251 kts | 334° |
| 2026-05-07 13:00 | 47.73856 | 9.50266 | 14433 ft | 253 kts | 334° |
| 2026-05-07 13:00 | 47.75475 | 9.49227 | 14971 ft | 255 kts | 334° |
| 2026-05-07 13:01 | 47.77097 | 9.48189 | 15496 ft | 257 kts | 334° |
| 2026-05-07 13:01 | 47.78722 | 9.47151 | 15996 ft | 259 kts | 334° |
| 2026-05-07 13:01 | 47.80444 | 9.46331 | 16459 ft | 264 kts | 350° |
| 2026-05-07 13:01 | 47.82305 | 9.46235 | 16922 ft | 268 kts | 358° |
| 2026-05-07 13:02 | 47.84161 | 9.46249 | 17380 ft | 270 kts | 358° |
| 2026-05-07 13:02 | 47.86041 | 9.46262 | 17850 ft | 271 kts | 358° |
| 2026-05-07 13:02 | 47.87947 | 9.46271 | 18295 ft | 273 kts | 358° |
| 2026-05-07 13:02 | 47.89838 | 9.46277 | 18745 ft | 275 kts | 358° |
| 2026-05-07 13:03 | 47.91746 | 9.46280 | 19178 ft | 276 kts | 358° |
| 2026-05-07 13:03 | 47.93677 | 9.46281 | 19608 ft | 278 kts | 358° |
| 2026-05-07 13:03 | 47.95615 | 9.46280 | 20033 ft | 278 kts | 358° |
| 2026-05-07 13:03 | 47.97535 | 9.46278 | 20409 ft | 279 kts | 358° |
| 2026-05-07 13:04 | 47.99495 | 9.46275 | 20753 ft | 281 kts | 358° |
| 2026-05-07 13:04 | 48.01427 | 9.46271 | 21063 ft | 282 kts | 358° |
| 2026-05-07 13:04 | 48.03411 | 9.46267 | 21384 ft | 283 kts | 358° |
| 2026-05-07 13:04 | 48.05360 | 9.46263 | 21672 ft | 284 kts | 358° |
| 2026-05-07 13:05 | 48.07367 | 9.46258 | 21943 ft | 285 kts | 358° |
| 2026-05-07 13:05 | 48.09331 | 9.46253 | 22214 ft | 286 kts | 358° |
| 2026-05-07 13:05 | 48.11320 | 9.46249 | 22474 ft | 287 kts | 357° |
| 2026-05-07 13:05 | 48.13333 | 9.46244 | 22721 ft | 288 kts | 357° |
| 2026-05-07 13:06 | 48.15334 | 9.46239 | 22894 ft | 291 kts | 357° |
| 2026-05-07 13:06 | 48.17376 | 9.46233 | 22937 ft | 298 kts | 358° |
| 2026-05-07 13:06 | 48.19463 | 9.46232 | 22943 ft | 305 kts | 358° |
| 2026-05-07 13:06 | 48.21612 | 9.46233 | 22944 ft | 310 kts | 358° |
| 2026-05-07 13:07 | 48.23798 | 9.46234 | 22943 ft | 313 kts | 358° |
| 2026-05-07 13:07 | 48.25937 | 9.46235 | 22939 ft | 307 kts | 358° |
| 2026-05-07 13:07 | 48.28037 | 9.46236 | 22934 ft | 301 kts | 358° |
| 2026-05-07 13:07 | 48.30124 | 9.46237 | 22932 ft | 297 kts | 358° |
| 2026-05-07 13:08 | 48.32176 | 9.46238 | 22937 ft | 295 kts | 358° |
| 2026-05-07 13:08 | 48.34226 | 9.46239 | 22935 ft | 293 kts | 358° |
| 2026-05-07 13:08 | 48.36240 | 9.46240 | 22938 ft | 292 kts | 358° |
| 2026-05-07 13:08 | 48.38284 | 9.46242 | 22940 ft | 291 kts | 358° |
| 2026-05-07 13:09 | 48.40286 | 9.46243 | 22938 ft | 290 kts | 357° |
| 2026-05-07 13:09 | 48.42308 | 9.46244 | 22937 ft | 290 kts | 357° |
| 2026-05-07 13:09 | 48.44318 | 9.46246 | 22936 ft | 289 kts | 357° |
| 2026-05-07 13:09 | 48.46304 | 9.46247 | 22934 ft | 288 kts | 357° |
| 2026-05-07 13:10 | 48.48309 | 9.46249 | 22933 ft | 288 kts | 357° |
| 2026-05-07 13:10 | 48.50315 | 9.46250 | 22932 ft | 287 kts | 357° |
| 2026-05-07 13:10 | 48.52317 | 9.46304 | 22929 ft | 288 kts | 2° |
| 2026-05-07 13:10 | 48.54218 | 9.47223 | 22954 ft | 291 kts | 23° |
| 2026-05-07 13:11 | 48.56012 | 9.48656 | 22945 ft | 293 kts | 25° |
| 2026-05-07 13:11 | 48.57808 | 9.50117 | 22940 ft | 295 kts | 25° |
| 2026-05-07 13:11 | 48.59604 | 9.51579 | 22940 ft | 297 kts | 25° |
| 2026-05-07 13:11 | 48.61449 | 9.53077 | 22939 ft | 298 kts | 25° |
| 2026-05-07 13:12 | 48.63268 | 9.54553 | 22942 ft | 299 kts | 25° |
| 2026-05-07 13:12 | 48.65094 | 9.56033 | 22943 ft | 300 kts | 25° |
| 2026-05-07 13:12 | 48.66951 | 9.57537 | 22939 ft | 301 kts | 25° |
| 2026-05-07 13:12 | 48.68793 | 9.59028 | 22948 ft | 302 kts | 25° |
| 2026-05-07 13:13 | 48.70634 | 9.60520 | 22943 ft | 303 kts | 25° |
| 2026-05-07 13:13 | 48.72479 | 9.62015 | 22942 ft | 303 kts | 25° |
| 2026-05-07 13:13 | 48.74361 | 9.63540 | 22944 ft | 304 kts | 25° |
| 2026-05-07 13:13 | 48.76212 | 9.65041 | 22952 ft | 304 kts | 25° |
| 2026-05-07 13:14 | 48.78064 | 9.66544 | 22954 ft | 304 kts | 25° |
| 2026-05-07 13:14 | 48.79942 | 9.68070 | 22957 ft | 304 kts | 25° |
| 2026-05-07 13:14 | 48.81797 | 9.69578 | 22962 ft | 305 kts | 25° |
| 2026-05-07 13:14 | 48.83655 | 9.71089 | 22967 ft | 305 kts | 25° |
| 2026-05-07 13:15 | 48.85532 | 9.72617 | 22971 ft | 305 kts | 25° |
| 2026-05-07 13:15 | 48.87390 | 9.74142 | 22970 ft | 306 kts | 26° |
| 2026-05-07 13:15 | 48.89032 | 9.76182 | 22975 ft | 310 kts | 45° |
| 2026-05-07 13:15 | 48.90402 | 9.78709 | 22971 ft | 312 kts | 48° |
| 2026-05-07 13:16 | 48.91768 | 9.81295 | 22967 ft | 312 kts | 48° |
| 2026-05-07 13:16 | 48.93133 | 9.83881 | 22966 ft | 313 kts | 48° |
| 2026-05-07 13:16 | 48.94475 | 9.86420 | 22969 ft | 313 kts | 48° |
| 2026-05-07 13:16 | 48.95847 | 9.89012 | 22963 ft | 313 kts | 47° |
| 2026-05-07 13:17 | 48.97210 | 9.91583 | 22960 ft | 314 kts | 47° |
| 2026-05-07 13:17 | 48.98575 | 9.94159 | 22958 ft | 314 kts | 47° |
| 2026-05-07 13:17 | 48.99935 | 9.96725 | 22956 ft | 314 kts | 47° |
| 2026-05-07 13:17 | 49.01316 | 9.99331 | 22957 ft | 314 kts | 47° |
| 2026-05-07 13:18 | 49.02676 | 10.01899 | 22958 ft | 314 kts | 47° |
| 2026-05-07 13:18 | 49.04046 | 10.04488 | 22954 ft | 314 kts | 47° |
| 2026-05-07 13:18 | 49.05405 | 10.07057 | 22954 ft | 314 kts | 48° |
| 2026-05-07 13:18 | 49.06776 | 10.09652 | 22956 ft | 314 kts | 47° |
| 2026-05-07 13:19 | 49.08154 | 10.12262 | 22953 ft | 314 kts | 47° |
| 2026-05-07 13:19 | 49.09522 | 10.14854 | 22954 ft | 314 kts | 47° |
| 2026-05-07 13:19 | 49.10873 | 10.17419 | 22824 ft | 309 kts | 47° |
| 2026-05-07 13:19 | 49.12202 | 10.19931 | 22268 ft | 304 kts | 47° |
| 2026-05-07 13:20 | 49.13520 | 10.22426 | 21671 ft | 301 kts | 47° |
| 2026-05-07 13:20 | 49.14872 | 10.24815 | 21088 ft | 296 kts | 43° |
| 2026-05-07 13:20 | 49.16295 | 10.27030 | 20515 ft | 292 kts | 41° |
| 2026-05-07 13:20 | 49.17720 | 10.29218 | 19926 ft | 289 kts | 41° |
| 2026-05-07 13:21 | 49.19115 | 10.31366 | 19359 ft | 288 kts | 42° |
| 2026-05-07 13:21 | 49.20518 | 10.33530 | 18783 ft | 286 kts | 42° |
| 2026-05-07 13:21 | 49.21911 | 10.35686 | 18214 ft | 285 kts | 42° |
| 2026-05-07 13:21 | 49.23291 | 10.37824 | 17665 ft | 284 kts | 42° |
| 2026-05-07 13:22 | 49.24674 | 10.39956 | 17111 ft | 282 kts | 41° |
| 2026-05-07 13:22 | 49.26054 | 10.42055 | 16556 ft | 281 kts | 41° |
| 2026-05-07 13:22 | 49.27420 | 10.44138 | 16006 ft | 279 kts | 42° |
| 2026-05-07 13:22 | 49.28804 | 10.46247 | 15424 ft | 279 kts | 42° |
| 2026-05-07 13:23 | 49.30176 | 10.48344 | 14871 ft | 280 kts | 42° |
| 2026-05-07 13:23 | 49.31543 | 10.50437 | 14320 ft | 281 kts | 42° |
| 2026-05-07 13:23 | 49.32932 | 10.52565 | 13764 ft | 282 kts | 42° |
| 2026-05-07 13:23 | 49.34296 | 10.54655 | 13221 ft | 282 kts | 42° |
| 2026-05-07 13:24 | 49.35670 | 10.56768 | 12670 ft | 282 kts | 42° |
| 2026-05-07 13:24 | 49.37055 | 10.58916 | 12114 ft | 281 kts | 43° |
| 2026-05-07 13:24 | 49.38425 | 10.61044 | 11561 ft | 281 kts | 43° |
| 2026-05-07 13:24 | 49.39783 | 10.63156 | 11124 ft | 276 kts | 43° |
| 2026-05-07 13:25 | 49.41089 | 10.65196 | 10999 ft | 266 kts | 43° |
| 2026-05-07 13:25 | 49.42381 | 10.67242 | 10970 ft | 265 kts | 46° |
| 2026-05-07 13:25 | 49.43223 | 10.69688 | 10953 ft | 265 kts | 78° |
| 2026-05-07 13:25 | 49.43175 | 10.72514 | 10965 ft | 263 kts | 97° |
| 2026-05-07 13:26 | 49.42921 | 10.75255 | 10956 ft | 262 kts | 98° |
| 2026-05-07 13:26 | 49.42656 | 10.78009 | 10951 ft | 262 kts | 98° |
| 2026-05-07 13:26 | 49.42385 | 10.80791 | 10958 ft | 265 kts | 98° |
| 2026-05-07 13:26 | 49.42111 | 10.83612 | 10970 ft | 267 kts | 98° |
| 2026-05-07 13:27 | 49.41837 | 10.86444 | 10952 ft | 270 kts | 98° |
| 2026-05-07 13:27 | 49.41562 | 10.89280 | 10956 ft | 271 kts | 98° |
| 2026-05-07 13:27 | 49.41281 | 10.92164 | 10958 ft | 273 kts | 98° |
| 2026-05-07 13:27 | 49.41000 | 10.95043 | 10958 ft | 274 kts | 98° |
| 2026-05-07 13:28 | 49.40717 | 10.97952 | 10958 ft | 276 kts | 98° |
| 2026-05-07 13:28 | 49.40432 | 11.00854 | 10957 ft | 277 kts | 98° |
| 2026-05-07 13:28 | 49.40147 | 11.03764 | 10975 ft | 278 kts | 98° |
| 2026-05-07 13:28 | 49.39857 | 11.06713 | 10948 ft | 279 kts | 98° |
| 2026-05-07 13:29 | 49.39568 | 11.09645 | 10958 ft | 280 kts | 98° |
| 2026-05-07 13:29 | 49.39275 | 11.12590 | 10958 ft | 283 kts | 98° |
| 2026-05-07 13:29 | 49.38974 | 11.15622 | 10956 ft | 286 kts | 98° |
| 2026-05-07 13:29 | 49.38674 | 11.18628 | 10960 ft | 288 kts | 98° |
| 2026-05-07 13:30 | 49.38374 | 11.21640 | 10949 ft | 289 kts | 98° |
| 2026-05-07 13:30 | 49.38065 | 11.24728 | 10945 ft | 291 kts | 98° |
| 2026-05-07 13:30 | 49.37760 | 11.27759 | 10949 ft | 291 kts | 98° |
| 2026-05-07 13:30 | 49.37452 | 11.30824 | 10950 ft | 292 kts | 98° |
| 2026-05-07 13:31 | 49.37139 | 11.33916 | 10947 ft | 293 kts | 98° |
| 2026-05-07 13:31 | 49.36827 | 11.37007 | 10943 ft | 294 kts | 98° |
| 2026-05-07 13:31 | 49.36511 | 11.40115 | 10941 ft | 294 kts | 98° |
| 2026-05-07 13:31 | 49.36197 | 11.43207 | 10931 ft | 294 kts | 99° |
| 2026-05-07 13:32 | 49.35883 | 11.46280 | 10937 ft | 295 kts | 99° |
| 2026-05-07 13:32 | 49.35563 | 11.49408 | 10940 ft | 295 kts | 99° |
| 2026-05-07 13:32 | 49.35247 | 11.52495 | 10926 ft | 295 kts | 99° |
| 2026-05-07 13:32 | 49.35032 | 11.55617 | 10599 ft | 299 kts | 88° |
| 2026-05-07 13:33 | 49.35635 | 11.58559 | 10136 ft | 294 kts | 56° |
| 2026-05-07 13:33 | 49.37142 | 11.60597 | 9677 ft | 287 kts | 23° |
| 2026-05-07 13:33 | 49.39026 | 11.61417 | 9258 ft | 281 kts | 8° |
| 2026-05-07 13:33 | 49.40943 | 11.61905 | 8810 ft | 278 kts | 2° |
| 2026-05-07 13:34 | 49.42765 | 11.61395 | 8330 ft | 264 kts | 330° |
| 2026-05-07 13:34 | 49.44533 | 11.56997 | 7422 ft | 242 kts | 283° |
| 2026-05-07 13:34 | 49.44899 | 11.54499 | 6965 ft | 237 kts | 282° |
| 2026-05-07 13:35 | 49.45220 | 11.52084 | 6511 ft | 232 kts | 281° |
| 2026-05-07 13:35 | 49.45518 | 11.49679 | 6059 ft | 229 kts | 281° |
| 2026-05-07 13:35 | 49.45798 | 11.47273 | 5595 ft | 225 kts | 279° |
| 2026-05-07 13:35 | 49.46045 | 11.44940 | 5140 ft | 222 kts | 279° |
| 2026-05-07 13:36 | 49.46288 | 11.42630 | 4684 ft | 219 kts | 279° |
| 2026-05-07 13:36 | 49.46530 | 11.40318 | 4244 ft | 216 kts | 279° |
| 2026-05-07 13:36 | 49.46756 | 11.38125 | 4060 ft | 204 kts | 279° |
| 2026-05-07 13:36 | 49.46978 | 11.35997 | 4000 ft | 200 kts | 280° |
| 2026-05-07 13:37 | 49.47223 | 11.33914 | 3974 ft | 196 kts | 281° |
| 2026-05-07 13:37 | 49.47456 | 11.31886 | 3953 ft | 192 kts | 280° |
| 2026-05-07 13:37 | 49.47664 | 11.29871 | 3714 ft | 190 kts | 279° |
| 2026-05-07 13:37 | 49.47859 | 11.27914 | 3427 ft | 182 kts | 279° |
| 2026-05-07 13:38 | 49.48047 | 11.26040 | 3150 ft | 171 kts | 279° |
| 2026-05-07 13:38 | 49.48228 | 11.24259 | 2973 ft | 163 kts | 279° |
| 2026-05-07 13:38 | 49.48395 | 11.22625 | 2755 ft | 150 kts | 278° |
| 2026-05-07 13:38 | 49.48542 | 11.21132 | 2510 ft | 134 kts | 279° |
| 2026-05-07 13:39 | 49.48686 | 11.19741 | 2358 ft | 130 kts | 280° |
| 2026-05-07 13:39 | 49.48833 | 11.18362 | 2211 ft | 132 kts | 279° |
| 2026-05-07 13:39 | 49.48974 | 11.16955 | 2050 ft | 136 kts | 276° |
| 2026-05-07 13:39 | 49.49118 | 11.15489 | 1872 ft | 140 kts | 277° |
| 2026-05-07 13:40 | 49.49261 | 11.14018 | 1678 ft | 137 kts | 276° |
| 2026-05-07 13:40 | 49.49405 | 11.12559 | 1501 ft | 140 kts | 278° |
| 2026-05-07 13:40 | 49.49550 | 11.11081 | 1303 ft | 140 kts | 278° |
| 2026-05-07 13:40 | 49.49694 | 11.09625 | 1089 ft | 134 kts | 276° |
| 2026-05-07 13:41 | 49.49809 | 11.08404 | 1052 ft | 87 kts | 277° |
| 2026-05-07 13:41 | 49.49874 | 11.07796 | 1052 ft | 35 kts | 277° |
| 2026-05-07 13:41 | 49.49824 | 11.07651 | 1052 ft | 15 kts | 160° |
| 2026-05-07 13:41 | 49.49730 | 11.07722 | 1052 ft | 12 kts | 155° |
| 2026-05-07 13:42 | 49.49725 | 11.07725 | 1052 ft | 0 kts | 155° |
| 2026-05-07 13:42 | 49.49714 | 11.07733 | 1052 ft | 6 kts | 155° |
| 2026-05-07 13:43 | 49.49649 | 11.07770 | 1052 ft | 11 kts | 183° |
| 2026-05-07 13:43 | 49.49582 | 11.07793 | 1052 ft | 9 kts | 154° |
| 2026-05-07 13:43 | 49.49533 | 11.07794 | 1052 ft | 5 kts | 188° |
| 2026-05-07 13:43 | 49.49523 | 11.07792 | 1052 ft | 0 kts | 189° |